createdAt,value
2023-01-13T00:00:43.087Z,74.703
2023-01-13T00:01:42.634Z,74.417
2023-01-13T00:02:43.192Z,74.371
2023-01-13T00:03:42.688Z,74.655
2023-01-13T00:04:43.336Z,74.612
2023-01-13T00:05:43.173Z,74.711
2023-01-13T00:06:42.806Z,74.562
2023-01-13T00:07:42.315Z,74.266
2023-01-13T00:09:42.365Z,74.243
2023-01-13T00:10:42.889Z,74.268
2023-01-13T00:11:42.386Z,74.579
2023-01-13T00:12:42.973Z,74.612
2023-01-13T00:13:42.416Z,74.686
2023-01-13T00:14:42.953Z,74.474
2023-01-13T00:15:42.504Z,74.398
2023-01-13T00:17:42.644Z,74.421
2023-01-13T00:18:43.104Z,74.503
2023-01-13T00:19:42.540Z,74.409
2023-01-13T00:20:43.076Z,74.772
2023-01-13T00:21:42.577Z,74.961
2023-01-13T00:22:42.973Z,75.130
2023-01-13T00:23:42.532Z,75.737
2023-01-13T00:24:42.973Z,75.907
2023-01-13T00:25:42.405Z,76.654
2023-01-13T00:27:42.318Z,76.847
2023-01-13T00:28:42.790Z,77.421
2023-01-13T00:29:43.234Z,77.705
2023-01-13T00:30:42.754Z,77.976
2023-01-13T00:31:42.464Z,77.854
2023-01-13T00:32:42.917Z,77.982
2023-01-13T00:33:42.331Z,78.531
2023-01-13T00:34:42.806Z,78.943
2023-01-13T00:35:43.225Z,79.348
2023-01-13T00:36:42.724Z,78.525
2023-01-13T00:38:42.609Z,79.893
2023-01-13T00:39:43.193Z,79.807
2023-01-13T00:40:42.796Z,79.748
2023-01-13T00:41:42.258Z,79.546
2023-01-13T00:42:42.743Z,79.784
2023-01-13T00:43:43.241Z,80.366
2023-01-13T00:44:42.753Z,80.587
2023-01-13T00:45:42.278Z,79.962
2023-01-13T00:46:43.084Z,79.513
2023-01-13T00:47:42.596Z,79.958
2023-01-13T00:48:43.118Z,78.268
2023-01-13T00:49:42.617Z,79.128
2023-01-13T00:50:43.146Z,79.311
2023-01-13T00:51:42.861Z,79.126
2023-01-13T00:52:44.149Z,79.176
2023-01-13T00:53:42.650Z,79.790
2023-01-13T00:54:42.342Z,79.489
2023-01-13T00:55:42.917Z,79.586
2023-01-13T00:56:47.285Z,78.964
2023-01-13T00:57:42.795Z,79.790
2023-01-13T00:58:43.305Z,78.781
2023-01-13T00:59:42.709Z,79.149
2023-01-13T01:00:43.302Z,78.037
2023-01-13T01:01:43.530Z,78.222
2023-01-13T01:02:44.306Z,78.979
2023-01-13T01:03:42.827Z,78.380
2023-01-13T01:04:42.450Z,78.041
2023-01-13T01:05:42.958Z,78.152
2023-01-13T01:06:42.417Z,77.978
2023-01-13T01:07:42.934Z,77.507
2023-01-13T01:08:42.420Z,77.118
2023-01-13T01:09:42.946Z,77.656
2023-01-13T01:10:42.468Z,77.724
2023-01-13T01:11:42.936Z,77.984
2023-01-13T01:12:42.518Z,77.831
2023-01-13T01:13:42.965Z,77.606
2023-01-13T01:14:42.653Z,77.587
2023-01-13T01:15:43.213Z,77.537
2023-01-13T01:16:42.981Z,77.206
2023-01-13T01:17:42.527Z,76.376
2023-01-13T01:18:42.983Z,76.420
2023-01-13T01:19:42.546Z,76.404
2023-01-13T01:20:43.145Z,76.063
2023-01-13T01:21:42.680Z,76.345
2023-01-13T01:22:43.177Z,76.038
2023-01-13T01:23:42.676Z,76.233
2023-01-13T01:24:43.197Z,75.920
2023-01-13T01:25:42.673Z,75.809
2023-01-13T01:26:43.163Z,75.037
2023-01-13T01:27:42.638Z,75.804
2023-01-13T01:29:42.717Z,76.156
2023-01-13T01:30:43.155Z,76.008
2023-01-13T01:31:42.922Z,75.432
2023-01-13T01:32:42.410Z,74.863
2023-01-13T01:33:42.881Z,75.680
2023-01-13T01:34:42.429Z,75.657
2023-01-13T01:36:42.387Z,75.971
2023-01-13T01:37:42.853Z,75.855
2023-01-13T01:38:43.341Z,75.683
2023-01-13T01:39:42.969Z,75.476
2023-01-13T01:40:42.540Z,75.054
2023-01-13T01:41:43.124Z,75.353
2023-01-13T01:42:42.893Z,75.363
2023-01-13T01:43:42.360Z,75.395
2023-01-13T01:44:43.004Z,75.559
2023-01-13T01:45:42.581Z,75.443
2023-01-13T01:46:43.184Z,75.291
2023-01-13T01:47:43.050Z,75.722
2023-01-13T01:48:42.488Z,75.638
2023-01-13T01:49:42.308Z,75.512
2023-01-13T01:50:42.805Z,75.483
2023-01-13T01:51:42.297Z,75.569
2023-01-13T01:52:42.781Z,75.991
2023-01-13T01:53:42.381Z,75.147
2023-01-13T01:54:42.941Z,75.167
2023-01-13T01:55:42.489Z,75.601
2023-01-13T01:56:42.986Z,75.647
2023-01-13T01:57:42.615Z,74.968
2023-01-13T01:58:43.138Z,75.130
2023-01-13T01:59:42.585Z,75.006
2023-01-13T02:01:43.206Z,75.497
2023-01-13T02:02:43.439Z,75.493
2023-01-13T02:03:43.017Z,75.327
2023-01-13T02:04:42.445Z,74.976
2023-01-13T02:06:42.384Z,75.853
2023-01-13T02:07:42.863Z,75.582
2023-01-13T02:08:42.510Z,75.659
2023-01-13T02:09:43.070Z,76.206
2023-01-13T02:10:42.573Z,76.074
2023-01-13T02:11:43.017Z,75.601
2023-01-13T02:12:42.620Z,75.289
2023-01-13T02:14:42.846Z,75.428
2023-01-13T02:15:42.612Z,75.275
2023-01-13T02:16:43.364Z,75.680
2023-01-13T02:17:42.905Z,75.540
2023-01-13T02:18:42.670Z,75.777
2023-01-13T02:19:43.172Z,76.095
2023-01-13T02:20:42.698Z,75.479
2023-01-13T02:21:43.179Z,75.931
2023-01-13T02:22:42.740Z,75.548
2023-01-13T02:23:43.297Z,75.407
2023-01-13T02:24:43.025Z,75.474
2023-01-13T02:26:43.092Z,75.270
2023-01-13T02:27:43.340Z,75.756
2023-01-13T02:28:42.918Z,75.485
2023-01-13T02:29:42.625Z,75.123
2023-01-13T02:30:43.321Z,74.602
2023-01-13T02:31:42.915Z,74.472
2023-01-13T02:32:42.671Z,74.968
2023-01-13T02:34:42.645Z,74.543
2023-01-13T02:35:42.370Z,74.854
2023-01-13T02:36:42.869Z,74.999
2023-01-13T02:37:42.368Z,75.369
2023-01-13T02:39:42.391Z,74.610
2023-01-13T02:40:42.886Z,74.594
2023-01-13T02:41:42.337Z,74.964
2023-01-13T02:42:42.826Z,74.762
2023-01-13T02:43:42.358Z,74.783
2023-01-13T02:44:42.934Z,74.722
2023-01-13T02:45:42.424Z,74.379
2023-01-13T02:46:42.462Z,74.472
2023-01-13T02:47:43.030Z,74.457
2023-01-13T02:48:42.686Z,74.236
2023-01-13T02:49:43.141Z,73.845
2023-01-13T02:50:43.695Z,74.606
2023-01-13T02:51:43.249Z,74.024
2023-01-13T02:52:42.834Z,74.156
2023-01-13T02:53:42.421Z,74.659
2023-01-13T02:54:42.905Z,74.642
2023-01-13T02:55:42.505Z,74.152
2023-01-13T02:56:43.077Z,74.646
2023-01-13T02:57:42.613Z,74.575
2023-01-13T02:58:43.074Z,75.008
2023-01-13T02:59:42.559Z,74.741
2023-01-13T03:00:43.346Z,74.678
2023-01-13T03:01:43.674Z,74.644
2023-01-13T03:02:43.153Z,74.735
2023-01-13T03:03:42.828Z,74.327
2023-01-13T03:04:42.352Z,74.039
2023-01-13T03:05:42.996Z,74.619
2023-01-13T03:06:42.544Z,74.287
2023-01-13T03:07:43.119Z,75.044
2023-01-13T03:08:43.129Z,74.678
2023-01-13T03:09:42.914Z,74.673
2023-01-13T03:11:42.556Z,75.369
2023-01-13T03:12:43.165Z,75.569
2023-01-13T03:13:42.890Z,75.126
2023-01-13T03:14:42.490Z,75.346
2023-01-13T03:15:43.210Z,75.271
2023-01-13T03:16:42.794Z,75.119
2023-01-13T03:17:42.463Z,75.657
2023-01-13T03:18:43.159Z,75.718
2023-01-13T03:19:42.578Z,76.700
2023-01-13T03:20:43.235Z,76.576
2023-01-13T03:21:42.804Z,76.475
2023-01-13T03:22:42.684Z,77.299
2023-01-13T03:23:46.187Z,76.864
2023-01-13T03:24:44.359Z,76.843
2023-01-13T03:25:43.041Z,76.425
2023-01-13T03:26:42.652Z,76.542
2023-01-13T03:27:43.252Z,75.752
2023-01-13T03:28:42.825Z,76.595
2023-01-13T03:29:42.731Z,76.481
2023-01-13T03:30:42.754Z,76.668
2023-01-13T03:31:43.359Z,75.798
2023-01-13T03:33:42.379Z,75.571
2023-01-13T03:34:42.988Z,76.353
2023-01-13T03:36:43.208Z,75.054
2023-01-13T03:38:43.306Z,75.903
2023-01-13T03:39:42.918Z,75.628
2023-01-13T03:40:42.494Z,76.385
2023-01-13T03:41:43.099Z,75.729
2023-01-13T03:43:45.397Z,75.323
2023-01-13T03:44:43.138Z,75.432
2023-01-13T03:45:42.691Z,75.262
2023-01-13T03:46:42.390Z,74.913
2023-01-13T03:47:42.983Z,74.930
2023-01-13T03:48:42.668Z,75.075
2023-01-13T03:49:43.321Z,75.128
2023-01-13T03:51:42.587Z,74.861
2023-01-13T03:52:43.256Z,75.006
2023-01-13T03:53:42.824Z,75.107
2023-01-13T03:54:42.334Z,74.818
2023-01-13T03:55:42.935Z,74.926
2023-01-13T03:56:42.425Z,75.203
2023-01-13T03:57:43.047Z,75.151
2023-01-13T03:58:42.895Z,75.214
2023-01-13T03:59:42.489Z,74.854
2023-01-13T04:00:43.193Z,74.694
2023-01-13T04:02:43.126Z,74.907
2023-01-13T04:03:43.033Z,74.718
2023-01-13T04:04:43.020Z,75.115
2023-01-13T04:05:42.695Z,75.102
2023-01-13T04:06:43.385Z,75.113
2023-01-13T04:07:43.154Z,74.953
2023-01-13T04:08:42.808Z,75.128
2023-01-13T04:09:42.859Z,75.245
2023-01-13T04:10:42.446Z,75.334
2023-01-13T04:11:43.054Z,74.539
2023-01-13T04:12:42.703Z,74.879
2023-01-13T04:13:42.551Z,75.071
2023-01-13T04:14:43.154Z,75.273
2023-01-13T04:15:43.020Z,75.046
2023-01-13T04:16:42.971Z,74.999
2023-01-13T04:17:42.604Z,74.869
2023-01-13T04:18:43.203Z,75.180
2023-01-13T04:20:42.421Z,75.006
2023-01-13T04:21:43.111Z,74.707
2023-01-13T04:22:42.752Z,74.768
2023-01-13T04:23:43.340Z,75.098
2023-01-13T04:25:42.585Z,75.405
2023-01-13T04:26:43.142Z,75.224
2023-01-13T04:27:42.838Z,75.369
2023-01-13T04:28:42.572Z,75.228
2023-01-13T04:30:42.983Z,75.018
2023-01-13T04:31:42.745Z,75.315
2023-01-13T04:32:42.332Z,74.980
2023-01-13T04:33:43.255Z,74.596
2023-01-13T04:35:42.490Z,74.917
2023-01-13T04:36:43.254Z,74.985
2023-01-13T04:37:42.875Z,75.584
2023-01-13T04:38:42.469Z,75.121
2023-01-13T04:39:42.978Z,75.342
2023-01-13T04:40:42.510Z,75.577
2023-01-13T04:41:43.146Z,75.313
2023-01-13T04:42:42.606Z,75.500
2023-01-13T04:43:43.200Z,75.294
2023-01-13T04:45:42.354Z,75.533
2023-01-13T04:46:43.274Z,75.508
2023-01-13T04:47:42.978Z,75.451
2023-01-13T04:48:42.603Z,75.407
2023-01-13T04:50:42.911Z,75.624
2023-01-13T04:51:42.516Z,75.191
2023-01-13T04:52:43.000Z,75.178
2023-01-13T04:53:42.708Z,75.552
2023-01-13T04:55:42.823Z,75.706
2023-01-13T04:57:43.239Z,75.815
2023-01-13T04:58:42.822Z,75.735
2023-01-13T04:59:42.380Z,75.634
2023-01-13T05:00:43.029Z,75.806
2023-01-13T05:01:43.515Z,75.943
2023-01-13T05:02:43.228Z,75.521
2023-01-13T05:03:42.735Z,75.525
2023-01-13T05:04:43.483Z,75.966
2023-01-13T05:05:43.170Z,75.834
2023-01-13T05:06:42.919Z,76.029
2023-01-13T05:07:42.466Z,75.621
2023-01-13T05:08:43.125Z,75.807
2023-01-13T05:09:42.762Z,75.924
2023-01-13T05:10:43.525Z,76.063
2023-01-13T05:11:43.046Z,75.609
2023-01-13T05:12:42.683Z,75.703
2023-01-13T05:13:42.342Z,76.023
2023-01-13T05:14:42.886Z,76.141
2023-01-13T05:15:42.500Z,76.231
2023-01-13T05:16:43.282Z,76.301
2023-01-13T05:17:42.806Z,76.303
2023-01-13T05:18:42.360Z,76.460
2023-01-13T05:19:43.133Z,76.547
2023-01-13T05:20:42.662Z,76.448
2023-01-13T05:21:43.350Z,76.340
2023-01-13T05:22:42.977Z,76.351
2023-01-13T05:23:42.582Z,76.528
2023-01-13T05:24:43.357Z,76.504
2023-01-13T05:25:45.788Z,76.761
2023-01-13T05:26:43.435Z,76.452
2023-01-13T05:27:43.091Z,76.858
2023-01-13T05:28:42.782Z,76.809
2023-01-13T05:29:42.440Z,76.721
2023-01-13T05:30:43.047Z,76.622
2023-01-13T05:31:42.843Z,76.914
2023-01-13T05:32:42.452Z,76.633
2023-01-13T05:33:43.121Z,76.523
2023-01-13T05:34:42.854Z,76.761
2023-01-13T05:35:42.518Z,76.689
2023-01-13T05:36:43.040Z,76.698
2023-01-13T05:37:42.583Z,76.725
2023-01-13T05:38:43.300Z,76.624
2023-01-13T05:39:42.833Z,76.681
2023-01-13T05:40:42.442Z,76.776
2023-01-13T05:41:43.166Z,76.387
2023-01-13T05:42:42.776Z,76.607
2023-01-13T05:43:42.318Z,76.767
2023-01-13T05:44:43.014Z,77.070
2023-01-13T05:45:42.703Z,76.733
2023-01-13T05:46:43.369Z,76.761
2023-01-13T05:47:45.418Z,76.652
2023-01-13T05:48:42.948Z,76.618
2023-01-13T05:49:43.999Z,76.479
2023-01-13T05:50:42.634Z,76.553
2023-01-13T05:51:43.231Z,76.649
2023-01-13T05:52:42.787Z,76.618
2023-01-13T05:53:42.413Z,76.755
2023-01-13T05:54:43.226Z,76.713
2023-01-13T05:55:42.972Z,76.799
2023-01-13T05:56:42.601Z,76.811
2023-01-13T05:57:43.188Z,76.734
2023-01-13T05:58:42.807Z,76.727
2023-01-13T05:59:42.434Z,76.780
2023-01-13T06:00:43.715Z,76.994
2023-01-13T06:01:42.812Z,76.698
2023-01-13T06:02:42.463Z,76.855
2023-01-13T06:04:43.075Z,76.404
2023-01-13T06:05:42.924Z,76.704
2023-01-13T06:06:42.499Z,76.858
2023-01-13T06:07:43.064Z,76.923
2023-01-13T06:08:44.603Z,77.106
2023-01-13T06:09:43.078Z,76.809
2023-01-13T06:10:42.699Z,76.691
2023-01-13T06:11:43.260Z,76.822
2023-01-13T06:12:42.782Z,76.797
2023-01-13T06:13:42.322Z,76.595
2023-01-13T06:14:42.847Z,76.527
2023-01-13T06:15:42.489Z,76.580
2023-01-13T06:16:43.253Z,76.334
2023-01-13T06:17:42.823Z,76.347
2023-01-13T06:19:42.989Z,76.300
2023-01-13T06:20:42.603Z,76.214
2023-01-13T06:21:43.051Z,76.570
2023-01-13T06:22:42.597Z,76.612
2023-01-13T06:24:42.667Z,76.357
2023-01-13T06:25:42.357Z,76.410
2023-01-13T06:26:42.905Z,76.496
2023-01-13T06:27:42.526Z,76.298
2023-01-13T06:29:42.630Z,76.065
2023-01-13T06:30:44.239Z,76.345
2023-01-13T06:31:42.934Z,76.454
2023-01-13T06:32:42.524Z,76.179
2023-01-13T06:33:43.135Z,76.122
2023-01-13T06:34:42.806Z,76.237
2023-01-13T06:35:42.322Z,76.300
2023-01-13T06:36:42.890Z,76.280
2023-01-13T06:37:42.444Z,76.227
2023-01-13T06:38:43.036Z,76.050
2023-01-13T06:39:42.707Z,76.033
2023-01-13T06:40:43.304Z,75.945
2023-01-13T06:41:42.928Z,75.859
2023-01-13T06:42:42.460Z,76.380
2023-01-13T06:43:43.088Z,76.229
2023-01-13T06:44:42.691Z,76.053
2023-01-13T06:45:43.212Z,76.044
2023-01-13T06:46:42.894Z,75.901
2023-01-13T06:47:42.577Z,75.868
2023-01-13T06:48:43.115Z,75.830
2023-01-13T06:49:42.662Z,75.798
2023-01-13T06:50:43.305Z,76.061
2023-01-13T06:51:42.856Z,75.884
2023-01-13T06:52:42.452Z,75.966
2023-01-13T06:53:42.961Z,75.632
2023-01-13T06:54:42.624Z,75.544
2023-01-13T06:55:43.171Z,75.472
2023-01-13T06:56:42.827Z,75.561
2023-01-13T06:57:42.456Z,75.712
2023-01-13T06:58:43.027Z,75.727
2023-01-13T06:59:42.567Z,75.685
2023-01-13T07:01:43.835Z,75.544
2023-01-13T07:02:43.174Z,75.245
2023-01-13T07:03:42.816Z,75.641
2023-01-13T07:04:42.568Z,75.432
2023-01-13T07:06:42.842Z,75.514
2023-01-13T07:07:42.346Z,75.683
2023-01-13T07:08:42.918Z,75.582
2023-01-13T07:09:42.526Z,75.657
2023-01-13T07:10:43.239Z,75.542
2023-01-13T07:11:42.760Z,75.460
2023-01-13T07:12:43.298Z,75.590
2023-01-13T07:14:42.471Z,75.409
2023-01-13T07:15:43.106Z,75.342
2023-01-13T07:16:42.821Z,75.516
2023-01-13T07:17:42.430Z,75.985
2023-01-13T07:18:42.970Z,75.687
2023-01-13T07:19:42.561Z,76.145
2023-01-13T07:20:43.134Z,75.798
2023-01-13T07:21:42.707Z,76.029
2023-01-13T07:22:43.326Z,75.802
2023-01-13T07:23:43.083Z,75.310
2023-01-13T07:24:42.750Z,75.462
2023-01-13T07:25:42.480Z,75.287
2023-01-13T07:26:43.119Z,75.550
2023-01-13T07:27:42.710Z,75.195
2023-01-13T07:28:43.295Z,75.151
2023-01-13T07:29:42.826Z,75.262
2023-01-13T07:30:42.530Z,75.262
2023-01-13T07:32:43.120Z,75.170
2023-01-13T07:33:42.693Z,74.739
2023-01-13T07:34:43.244Z,74.774
2023-01-13T07:35:42.980Z,74.732
2023-01-13T07:36:42.659Z,74.760
2023-01-13T07:37:43.280Z,74.694
2023-01-13T07:38:43.126Z,74.642
2023-01-13T07:40:42.528Z,74.575
2023-01-13T07:41:43.209Z,74.636
2023-01-13T07:42:42.801Z,74.104
2023-01-13T07:43:42.372Z,74.222
2023-01-13T07:45:42.811Z,74.886
2023-01-13T07:46:42.724Z,74.623
2023-01-13T07:47:42.364Z,74.341
2023-01-13T07:48:43.004Z,74.472
2023-01-13T07:49:42.624Z,74.304
2023-01-13T07:50:45.731Z,74.173
2023-01-13T07:51:42.541Z,74.289
2023-01-13T07:52:43.126Z,74.360
2023-01-13T07:53:42.759Z,74.365
2023-01-13T07:54:47.566Z,74.177
2023-01-13T07:55:43.243Z,74.570
2023-01-13T07:56:43.059Z,74.159
2023-01-13T07:58:43.253Z,74.032
2023-01-13T07:59:42.930Z,74.053
2023-01-13T08:00:42.584Z,73.971
2023-01-13T08:01:42.822Z,74.093
2023-01-13T08:02:43.173Z,73.986
2023-01-13T08:03:42.819Z,74.262
2023-01-13T08:04:42.483Z,73.898
2023-01-13T08:05:43.201Z,73.784
2023-01-13T08:06:42.914Z,73.868
2023-01-13T08:07:42.553Z,73.671
2023-01-13T08:08:43.162Z,73.919
2023-01-13T08:09:42.811Z,73.730
2023-01-13T08:10:42.453Z,73.711
2023-01-13T08:11:43.230Z,73.828
2023-01-13T08:12:52.018Z,73.858
2023-01-13T08:14:42.743Z,73.963
2023-01-13T08:15:42.604Z,74.005
2023-01-13T08:16:43.452Z,74.184
2023-01-13T08:17:43.299Z,73.913
2023-01-13T08:18:43.041Z,74.356
2023-01-13T08:19:42.713Z,73.971
2023-01-13T08:20:42.662Z,74.022
2023-01-13T08:21:43.339Z,74.215
2023-01-13T08:22:42.977Z,74.159
2023-01-13T08:24:42.927Z,74.045
2023-01-13T08:25:42.671Z,74.142
2023-01-13T08:26:43.477Z,74.016
2023-01-13T08:27:43.396Z,74.295
2023-01-13T08:29:42.778Z,73.644
2023-01-13T08:30:42.606Z,74.127
2023-01-13T08:31:42.636Z,74.516
2023-01-13T08:32:43.235Z,74.093
2023-01-13T08:34:42.643Z,74.459
2023-01-13T08:35:43.387Z,74.480
2023-01-13T08:36:43.066Z,74.810
2023-01-13T08:37:42.766Z,74.797
2023-01-13T08:38:42.657Z,74.509
2023-01-13T08:39:43.293Z,74.724
2023-01-13T08:40:43.087Z,74.638
2023-01-13T08:41:42.727Z,74.549
2023-01-13T08:42:43.313Z,74.411
2023-01-13T08:43:43.102Z,74.909
2023-01-13T08:45:42.766Z,75.353
2023-01-13T08:46:42.679Z,75.395
2023-01-13T08:47:43.358Z,75.722
2023-01-13T08:48:43.075Z,76.330
2023-01-13T08:50:42.913Z,78.136
2023-01-13T08:51:42.777Z,78.892
2023-01-13T08:52:43.345Z,79.044
2023-01-13T08:53:42.885Z,79.721
2023-01-13T08:54:42.691Z,79.636
2023-01-13T08:55:43.415Z,79.697
2023-01-13T08:56:43.049Z,79.750
2023-01-13T08:57:42.858Z,80.032
2023-01-13T08:58:43.251Z,81.177
2023-01-13T08:59:42.884Z,81.304
2023-01-13T09:00:42.633Z,81.345
2023-01-13T09:01:43.371Z,82.029
2023-01-13T09:02:42.454Z,82.212
2023-01-13T09:03:43.183Z,82.912
2023-01-13T09:04:43.266Z,82.373
2023-01-13T09:06:42.551Z,83.397
2023-01-13T09:07:43.222Z,84.381
2023-01-13T09:08:42.946Z,84.402
2023-01-13T09:09:42.663Z,84.093
2023-01-13T09:10:43.423Z,84.841
2023-01-13T09:11:43.124Z,84.930
2023-01-13T09:12:42.909Z,85.436
2023-01-13T09:13:42.613Z,85.903
2023-01-13T09:14:43.334Z,86.357
2023-01-13T09:15:43.466Z,86.672
2023-01-13T09:16:43.331Z,87.107
2023-01-13T09:17:43.175Z,87.320
2023-01-13T09:18:43.267Z,87.544
2023-01-13T09:19:42.907Z,87.683
2023-01-13T09:20:42.682Z,88.102
2023-01-13T09:21:43.377Z,88.711
2023-01-13T09:22:42.993Z,88.142
2023-01-13T09:23:42.655Z,88.545
2023-01-13T09:24:43.288Z,88.619
2023-01-13T09:25:42.964Z,88.791
2023-01-13T09:26:42.688Z,89.308
2023-01-13T09:27:43.407Z,89.356
2023-01-13T09:28:43.155Z,89.121
2023-01-13T09:29:42.780Z,89.460
2023-01-13T09:30:42.533Z,89.703
2023-01-13T09:31:45.947Z,90.035
2023-01-13T09:32:42.612Z,90.265
2023-01-13T09:33:43.262Z,90.464
2023-01-13T09:34:42.935Z,90.647
2023-01-13T09:35:42.608Z,90.914
2023-01-13T09:36:43.259Z,91.259
2023-01-13T09:37:42.903Z,91.013
2023-01-13T09:38:42.786Z,91.562
2023-01-13T09:39:42.487Z,88.173
2023-01-13T09:40:43.191Z,89.802
2023-01-13T09:41:42.934Z,88.682
2023-01-13T09:42:42.773Z,88.709
2023-01-13T09:43:42.560Z,88.284
2023-01-13T09:44:43.287Z,89.130
2023-01-13T09:45:42.980Z,89.977
2023-01-13T09:46:42.821Z,90.042
2023-01-13T09:47:42.551Z,89.041
2023-01-13T09:49:42.901Z,89.575
2023-01-13T09:50:42.558Z,89.241
2023-01-13T09:51:43.575Z,89.005
2023-01-13T09:52:46.124Z,88.854
2023-01-13T09:54:42.437Z,89.567
2023-01-13T09:55:43.032Z,89.863
2023-01-13T09:56:42.724Z,89.901
2023-01-13T09:57:42.630Z,90.099
2023-01-13T09:59:42.863Z,88.854
2023-01-13T10:00:42.522Z,89.087
2023-01-13T10:01:42.631Z,89.304
2023-01-13T10:02:43.344Z,89.262
2023-01-13T10:03:43.284Z,89.567
2023-01-13T10:04:43.008Z,88.953
2023-01-13T10:05:42.928Z,88.995
2023-01-13T10:06:42.709Z,89.624
2023-01-13T10:07:44.726Z,89.369
2023-01-13T10:08:43.344Z,89.434
2023-01-13T10:09:42.922Z,88.774
2023-01-13T10:10:42.555Z,87.364
2023-01-13T10:11:43.250Z,87.715
2023-01-13T10:12:42.841Z,88.173
2023-01-13T10:13:42.773Z,87.668
2023-01-13T10:14:42.437Z,87.582
2023-01-13T10:16:42.437Z,87.204
2023-01-13T10:17:43.193Z,87.914
2023-01-13T10:18:42.880Z,88.184
2023-01-13T10:19:42.591Z,87.521
2023-01-13T10:21:42.847Z,88.930
2023-01-13T10:22:42.787Z,88.280
2023-01-13T10:23:42.427Z,88.079
2023-01-13T10:24:43.117Z,88.854
2023-01-13T10:25:42.735Z,88.150
2023-01-13T10:26:42.475Z,88.221
2023-01-13T10:27:43.187Z,87.984
2023-01-13T10:29:42.423Z,87.578
2023-01-13T10:30:43.305Z,87.570
2023-01-13T10:31:43.178Z,88.026
2023-01-13T10:32:42.823Z,88.247
2023-01-13T10:33:42.514Z,87.675
2023-01-13T10:34:43.140Z,88.362
2023-01-13T10:35:42.758Z,88.047
2023-01-13T10:36:42.418Z,88.324
2023-01-13T10:37:43.083Z,88.213
2023-01-13T10:39:43.122Z,88.762
2023-01-13T10:40:42.738Z,88.388
2023-01-13T10:42:43.238Z,88.221
2023-01-13T10:43:42.919Z,88.619
2023-01-13T10:44:42.635Z,88.680
2023-01-13T10:45:43.344Z,88.924
2023-01-13T10:46:43.242Z,88.472
2023-01-13T10:47:42.893Z,88.171
2023-01-13T10:48:42.529Z,88.772
2023-01-13T10:49:43.132Z,88.400
2023-01-13T10:50:42.991Z,87.938
2023-01-13T10:51:42.645Z,88.373
2023-01-13T10:52:42.639Z,88.202
2023-01-13T10:53:43.248Z,86.943
2023-01-13T10:54:42.829Z,86.966
2023-01-13T10:55:42.733Z,87.372
2023-01-13T10:56:42.468Z,87.225
2023-01-13T10:57:43.263Z,85.751
2023-01-13T10:58:42.898Z,86.500
2023-01-13T10:59:43.231Z,86.235
2023-01-13T11:00:43.036Z,86.430
2023-01-13T11:01:43.523Z,85.873
2023-01-13T11:02:46.264Z,85.083
2023-01-13T11:03:43.236Z,85.209
2023-01-13T11:04:43.054Z,85.226
2023-01-13T11:06:42.483Z,85.226
2023-01-13T11:07:43.150Z,84.743
2023-01-13T11:08:42.827Z,85.337
2023-01-13T11:09:42.541Z,83.990
2023-01-13T11:11:42.951Z,84.839
2023-01-13T11:12:42.719Z,84.999
2023-01-13T11:13:43.323Z,82.951
2023-01-13T11:14:43.011Z,83.368
2023-01-13T11:15:42.741Z,83.485
2023-01-13T11:16:52.852Z,84.412
2023-01-13T11:17:43.091Z,83.403
2023-01-13T11:18:42.715Z,83.456
2023-01-13T11:19:42.457Z,83.450
2023-01-13T11:21:43.020Z,83.866
2023-01-13T11:22:42.819Z,83.624
2023-01-13T11:23:42.600Z,83.591
2023-01-13T11:24:43.266Z,83.034
2023-01-13T11:25:42.912Z,83.000
2023-01-13T11:26:42.648Z,83.084
2023-01-13T11:28:43.131Z,83.307
2023-01-13T11:29:42.869Z,82.424
2023-01-13T11:30:42.598Z,82.193
2023-01-13T11:31:43.520Z,82.827
2023-01-13T11:33:42.762Z,81.551
2023-01-13T11:34:42.445Z,81.684
2023-01-13T11:35:43.346Z,81.465
2023-01-13T11:36:42.943Z,81.898
2023-01-13T11:37:42.562Z,81.583
2023-01-13T11:38:43.138Z,80.519
2023-01-13T11:39:42.912Z,81.554
2023-01-13T11:40:42.785Z,80.122
2023-01-13T11:41:42.582Z,79.460
2023-01-13T11:42:43.245Z,79.622
2023-01-13T11:43:42.903Z,80.437
2023-01-13T11:44:42.636Z,80.942
2023-01-13T11:45:42.794Z,78.545
2023-01-13T11:47:43.476Z,79.327
2023-01-13T11:48:43.209Z,78.012
2023-01-13T11:49:42.923Z,78.070
2023-01-13T11:50:42.592Z,78.369
2023-01-13T11:51:43.328Z,77.875
2023-01-13T11:53:42.907Z,77.701
2023-01-13T11:54:42.784Z,77.261
2023-01-13T11:55:42.432Z,76.904
2023-01-13T11:56:43.306Z,76.940
2023-01-13T11:57:43.168Z,77.064
2023-01-13T11:58:50.915Z,77.373
2023-01-13T12:00:42.741Z,76.755
2023-01-13T12:01:43.019Z,76.717
2023-01-13T12:02:42.997Z,76.939
2023-01-13T12:04:42.668Z,77.526
2023-01-13T12:05:43.316Z,76.630
2023-01-13T12:07:42.845Z,75.552
2023-01-13T12:08:42.719Z,76.046
2023-01-13T12:10:42.528Z,74.997
2023-01-13T12:11:43.289Z,75.979
2023-01-13T12:13:43.377Z,77.282
2023-01-13T12:14:43.413Z,77.841
2023-01-13T12:16:43.409Z,76.055
2023-01-13T12:17:43.338Z,76.002
2023-01-13T12:18:43.207Z,76.118
2023-01-13T12:19:42.767Z,76.965
2023-01-13T12:20:42.562Z,77.408
2023-01-13T12:21:43.244Z,76.248
2023-01-13T12:22:42.897Z,75.725
2023-01-13T12:24:43.146Z,75.308
2023-01-13T12:25:42.951Z,75.590
2023-01-13T12:26:42.683Z,75.519
2023-01-13T12:27:42.536Z,76.549
2023-01-13T12:28:43.301Z,75.342
2023-01-13T12:30:44.236Z,76.120
2023-01-13T12:31:43.270Z,76.168
2023-01-13T12:32:43.015Z,76.280
2023-01-13T12:33:42.682Z,75.786
2023-01-13T12:34:43.310Z,76.021
2023-01-13T12:35:44.374Z,77.036
2023-01-13T12:36:43.502Z,76.305
2023-01-13T12:37:43.089Z,76.065
2023-01-13T12:38:42.834Z,77.040
2023-01-13T12:39:42.457Z,77.320
2023-01-13T12:40:43.244Z,77.974
2023-01-13T12:41:42.933Z,77.742
2023-01-13T12:42:42.543Z,78.285
2023-01-13T12:43:43.199Z,78.375
2023-01-13T12:44:42.839Z,78.121
2023-01-13T12:45:42.693Z,77.425
2023-01-13T12:46:42.563Z,78.287
2023-01-13T12:48:42.925Z,77.684
2023-01-13T12:49:42.680Z,78.159
2023-01-13T12:50:42.670Z,78.203
2023-01-13T12:51:43.384Z,77.469
2023-01-13T12:52:43.051Z,78.442
2023-01-13T12:53:42.783Z,78.058
2023-01-13T12:54:42.454Z,78.266
2023-01-13T12:55:43.106Z,78.943
2023-01-13T12:56:42.948Z,78.644
2023-01-13T12:57:42.622Z,78.150
2023-01-13T12:58:43.280Z,78.525
2023-01-13T13:00:42.651Z,79.277
2023-01-13T13:01:42.911Z,78.453
2023-01-13T13:02:43.521Z,78.800
2023-01-13T13:03:43.334Z,78.733
2023-01-13T13:04:43.606Z,79.515
2023-01-13T13:05:43.354Z,80.711
2023-01-13T13:06:43.040Z,81.613
2023-01-13T13:07:42.801Z,82.340
2023-01-13T13:08:42.521Z,81.707
2023-01-13T13:09:43.169Z,82.636
2023-01-13T13:10:42.824Z,82.167
2023-01-13T13:11:42.636Z,82.603
2023-01-13T13:12:42.493Z,83.376
2023-01-13T13:13:43.207Z,83.128
2023-01-13T13:15:42.868Z,83.149
2023-01-13T13:16:42.601Z,83.149
2023-01-13T13:18:43.120Z,81.957
2023-01-13T13:20:42.652Z,80.442
2023-01-13T13:21:42.635Z,80.637
2023-01-13T13:23:43.067Z,81.806
2023-01-13T13:24:42.779Z,82.661
2023-01-13T13:25:43.042Z,81.514
2023-01-13T13:26:42.688Z,81.346
2023-01-13T13:27:43.410Z,80.528
2023-01-13T13:28:43.044Z,81.661
2023-01-13T13:29:42.844Z,80.675
2023-01-13T13:31:42.663Z,80.074
2023-01-13T13:32:43.320Z,79.458
2023-01-13T13:33:42.951Z,76.410
2023-01-13T13:34:42.682Z,77.122
2023-01-13T13:35:43.441Z,77.055
2023-01-13T13:36:43.928Z,76.328
2023-01-13T13:37:42.648Z,77.000
2023-01-13T13:38:42.560Z,75.470
2023-01-13T13:40:42.568Z,76.214
2023-01-13T13:41:43.713Z,75.037
2023-01-13T13:43:42.978Z,74.787
2023-01-13T13:44:42.640Z,75.655
2023-01-13T13:46:43.315Z,75.577